White Creek, New York
Current Conditions -  °F | °C
As of 8:51 PM on Thursday 27 Nov 2014 (Local Time) from KDDH Reporting Station
Light Snow Light Snow  
Wind Chill: -3°   Ceiling: 2400
Heat Index: -3°   Visibility: 1.2mi
Dew Point: -4°   Wind: 0mph
Humidity: 93%   Direction: NA
Pressure: 30"   Gusts: NA
Location:  42.9693°N, 73.3467°W
Report Text: KDDH 280151Z AUTO 00000KT 1 1/4SM -SN BR FEW006 OVC024 M03/M04 A3000 RMK AO2 P0001
Loading
Personal Weather Stations






























Interactive Weather Map New forecast layout! Learn more

10-Day Weather Forecast

Advertisements
Track Severe Weather on mobile